sensor_id;sensor_type;location;lat;lon;timestamp;pressure;altitude;pressure_sealevel;temperature;humidity
76594;BME280;65482;50.240;14.302;2023-04-01T00:01:05;97867.69;;;10.04;64.57
76594;BME280;65482;50.240;14.302;2023-04-01T00:03:32;97867.84;;;9.96;64.76
76594;BME280;65482;50.240;14.302;2023-04-01T00:05:59;97877.97;;;9.92;64.99
76594;BME280;65482;50.240;14.302;2023-04-01T00:08:25;97873.50;;;9.86;65.47
76594;BME280;65482;50.240;14.302;2023-04-01T00:10:52;97868.00;;;9.81;65.53
76594;BME280;65482;50.240;14.302;2023-04-01T00:13:18;97873.28;;;9.81;65.33
76594;BME280;65482;50.240;14.302;2023-04-01T00:15:45;97871.69;;;9.87;65.56
76594;BME280;65482;50.240;14.302;2023-04-01T00:18:11;97868.81;;;9.82;65.26
76594;BME280;65482;50.240;14.302;2023-04-01T00:20:37;97867.19;;;9.81;65.21
76594;BME280;65482;50.240;14.302;2023-04-01T00:23:03;97868.81;;;9.82;65.30
76594;BME280;65482;50.240;14.302;2023-04-01T00:25:30;97868.38;;;9.78;65.14
76594;BME280;65482;50.240;14.302;2023-04-01T00:27:56;97870.41;;;9.76;65.60
76594;BME280;65482;50.240;14.302;2023-04-01T00:30:22;97869.81;;;9.81;65.70
76594;BME280;65482;50.240;14.302;2023-04-01T00:32:51;97875.31;;;9.86;65.24
76594;BME280;65482;50.240;14.302;2023-04-01T00:35:17;97870.44;;;9.83;65.38
76594;BME280;65482;50.240;14.302;2023-04-01T00:37:43;97875.13;;;9.87;65.50
76594;BME280;65482;50.240;14.302;2023-04-01T00:40:23;97874.94;;;9.89;65.44
76594;BME280;65482;50.240;14.302;2023-04-01T00:42:55;97879.34;;;9.82;65.62
76594;BME280;65482;50.240;14.302;2023-04-01T00:45:29;97867.19;;;9.81;66.06
76594;BME280;65482;50.240;14.302;2023-04-01T00:47:56;97870.66;;;9.81;66.10
76594;BME280;65482;50.240;14.302;2023-04-01T00:50:26;97882.34;;;9.79;66.30
76594;BME280;65482;50.240;14.302;2023-04-01T00:52:54;97872.41;;;9.74;66.20
76594;BME280;65482;50.240;14.302;2023-04-01T00:55:21;97869.53;;;9.62;66.52
76594;BME280;65482;50.240;14.302;2023-04-01T00:57:49;97871.72;;;9.59;66.80
76594;BME280;65482;50.240;14.302;2023-04-01T01:00:17;97872.75;;;9.58;66.29
76594;BME280;65482;50.240;14.302;2023-04-01T01:02:44;97867.47;;;9.58;66.68
76594;BME280;65482;50.240;14.302;2023-04-01T01:05:14;97870.72;;;9.60;66.76
76594;BME280;65482;50.240;14.302;2023-04-01T01:08:00;97865.84;;;9.56;67.02
76594;BME280;65482;50.240;14.302;2023-04-01T01:10:31;97870.31;;;9.56;66.68
76594;BME280;65482;50.240;14.302;2023-04-01T01:13:25;97871.94;;;9.57;66.35
76594;BME280;65482;50.240;14.302;2023-04-01T01:16:05;97865.28;;;9.61;66.48
76594;BME280;65482;50.240;14.302;2023-04-01T01:32:30;97874.16;;;9.60;66.59
76594;BME280;65482;50.240;14.302;2023-04-01T01:37:52;97869.06;;;9.52;66.96
76594;BME280;65482;50.240;14.302;2023-04-01T01:40:20;97866.25;;;9.53;66.63
76594;BME280;65482;50.240;14.302;2023-04-01T01:42:50;97873.56;;;9.58;66.58
76594;BME280;65482;50.240;14.302;2023-04-01T01:45:20;97874.41;;;9.65;66.60
76594;BME280;65482;50.240;14.302;2023-04-01T01:47:49;97876.22;;;9.65;66.67
76594;BME280;65482;50.240;14.302;2023-04-01T01:50:18;97877.84;;;9.66;66.72
76594;BME280;65482;50.240;14.302;2023-04-01T01:52:45;97878.91;;;9.71;66.56
76594;BME280;65482;50.240;14.302;2023-04-01T01:55:44;97880.72;;;9.71;66.59
76594;BME280;65482;50.240;14.302;2023-04-01T01:58:16;97871.03;;;9.78;66.31
76594;BME280;65482;50.240;14.302;2023-04-01T02:00:50;97887.59;;;9.72;66.99
76594;BME280;65482;50.240;14.302;2023-04-01T02:03:17;97879.53;;;9.73;66.83
76594;BME280;65482;50.240;14.302;2023-04-01T02:05:45;97872.84;;;9.78;66.81
76594;BME280;65482;50.240;14.302;2023-04-01T02:08:18;97886.97;;;9.70;67.18
76594;BME280;65482;50.240;14.302;2023-04-01T02:10:55;97879.91;;;9.70;67.16
76594;BME280;65482;50.240;14.302;2023-04-01T02:13:31;97879.69;;;9.72;67.18
76594;BME280;65482;50.240;14.302;2023-04-01T02:16:02;97883.13;;;9.72;67.04
76594;BME280;65482;50.240;14.302;2023-04-01T02:18:31;97881.97;;;9.75;67.12
76594;BME280;65482;50.240;14.302;2023-04-01T02:21:00;97882.75;;;9.75;67.14
76594;BME280;65482;50.240;14.302;2023-04-01T02:23:27;97883.75;;;9.74;67.31
76594;BME280;65482;50.240;14.302;2023-04-01T02:25:54;97881.97;;;9.75;67.13
76594;BME280;65482;50.240;14.302;2023-04-01T02:28:20;97880.72;;;9.71;66.91
76594;BME280;65482;50.240;14.302;2023-04-01T02:30:49;97877.31;;;9.77;67.07
76594;BME280;65482;50.240;14.302;2023-04-01T02:33:16;97882.16;;;9.80;66.90
76594;BME280;65482;50.240;14.302;2023-04-01T02:35:44;97882.56;;;9.77;67.02
76594;BME280;65482;50.240;14.302;2023-04-01T02:38:10;97873.28;;;9.81;66.79
76594;BME280;65482;50.240;14.302;2023-04-01T02:40:49;97886.88;;;9.85;66.71
76594;BME280;65482;50.240;14.302;2023-04-01T02:43:15;97887.63;;;9.79;66.61
76594;BME280;65482;50.240;14.302;2023-04-01T02:45:42;97885.59;;;9.81;66.43
76594;BME280;65482;50.240;14.302;2023-04-01T02:48:08;97889.09;;;9.81;66.92
76594;BME280;65482;50.240;14.302;2023-04-01T02:50:35;97894.13;;;9.83;66.71
76594;BME280;65482;50.240;14.302;2023-04-01T02:53:01;97897.19;;;9.86;66.36
76594;BME280;65482;50.240;14.302;2023-04-01T02:55:29;97888.09;;;9.89;66.40
76594;BME280;65482;50.240;14.302;2023-04-01T02:57:56;97898.81;;;9.87;66.10
76594;BME280;65482;50.240;14.302;2023-04-01T03:00:22;97907.16;;;9.91;66.21
76594;BME280;65482;50.240;14.302;2023-04-01T03:02:48;97909.56;;;9.92;66.00
76594;BME280;65482;50.240;14.302;2023-04-01T03:05:18;97905.31;;;9.91;66.09
76594;BME280;65482;50.240;14.302;2023-04-01T03:07:46;97914.66;;;9.94;66.34
76594;BME280;65482;50.240;14.302;2023-04-01T03:10:13;97906.56;;;9.95;66.13
76594;BME280;65482;50.240;14.302;2023-04-01T03:12:39;97919.31;;;9.99;65.72
76594;BME280;65482;50.240;14.302;2023-04-01T03:15:10;97911.44;;;9.99;65.87
76594;BME280;65482;50.240;14.302;2023-04-01T03:17:37;97915.09;;;9.98;65.83
76594;BME280;65482;50.240;14.302;2023-04-01T03:20:05;97908.41;;;10.02;65.58
76594;BME280;65482;50.240;14.302;2023-04-01T03:22:31;97919.13;;;10.00;65.74
76594;BME280;65482;50.240;14.302;2023-04-01T03:24:59;97918.53;;;9.98;65.34
76594;BME280;65482;50.240;14.302;2023-04-01T03:27:25;97911.84;;;10.02;65.35
76594;BME280;65482;50.240;14.302;2023-04-01T03:29:52;97910.25;;;10.01;65.18
76594;BME280;65482;50.240;14.302;2023-04-01T03:32:18;97914.66;;;10.01;65.44
76594;BME280;65482;50.240;14.302;2023-04-01T03:34:45;97920.59;;;10.03;65.09
76594;BME280;65482;50.240;14.302;2023-04-01T03:37:11;97909.63;;;10.06;65.26
76594;BME280;65482;50.240;14.302;2023-04-01T03:39:37;97917.53;;;10.06;65.05
76594;BME280;65482;50.240;14.302;2023-04-01T03:42:03;97914.91;;;10.06;65.02
76594;BME280;65482;50.240;14.302;2023-04-01T03:44:33;97925.63;;;10.04;65.02
76594;BME280;65482;50.240;14.302;2023-04-01T03:46:59;97924.41;;;10.00;65.14
76594;BME280;65482;50.240;14.302;2023-04-01T03:49:30;97922.56;;;10.01;64.98
76594;BME280;65482;50.240;14.302;2023-04-01T03:51:59;97925.22;;;10.01;65.18
76594;BME280;65482;50.240;14.302;2023-04-01T03:54:27;97927.22;;;9.99;65.47
76594;BME280;65482;50.240;14.302;2023-04-01T03:56:53;97934.31;;;9.98;65.23
76594;BME280;65482;50.240;14.302;2023-04-01T03:59:22;97925.81;;;9.96;65.12
76594;BME280;65482;50.240;14.302;2023-04-01T04:01:48;97936.75;;;9.93;65.51
76594;BME280;65482;50.240;14.302;2023-04-01T04:04:16;97934.06;;;9.86;65.18
76594;BME280;65482;50.240;14.302;2023-04-01T04:06:48;97941.16;;;9.86;65.32
76594;BME280;65482;50.240;14.302;2023-04-01T04:09:18;97941.13;;;9.79;65.45
76594;BME280;65482;50.240;14.302;2023-04-01T04:11:46;97943.16;;;9.84;65.00
76594;BME280;65482;50.240;14.302;2023-04-01T04:14:13;97943.91;;;9.71;65.58
76594;BME280;65482;50.240;14.302;2023-04-01T04:16:42;97949.22;;;9.78;65.51
76594;BME280;65482;50.240;14.302;2023-04-01T04:19:10;97943.31;;;9.75;65.28
76594;BME280;65482;50.240;14.302;2023-04-01T04:21:36;97949.41;;;9.76;65.52
76594;BME280;65482;50.240;14.302;2023-04-01T04:24:06;97949.03;;;9.79;65.22
76594;BME280;65482;50.240;14.302;2023-04-01T04:26:36;97958.34;;;9.82;65.27
76594;BME280;65482;50.240;14.302;2023-04-01T04:29:05;97950.88;;;9.85;65.11
76594;BME280;65482;50.240;14.302;2023-04-01T04:31:36;97956.97;;;9.86;65.20
76594;BME280;65482;50.240;14.302;2023-04-01T04:34:02;97954.94;;;9.88;65.17
76594;BME280;65482;50.240;14.302;2023-04-01T04:36:28;97956.78;;;9.87;64.84
76594;BME280;65482;50.240;14.302;2023-04-01T04:38:57;97952.72;;;9.85;64.94
76594;BME280;65482;50.240;14.302;2023-04-01T04:41:29;97959.16;;;9.82;65.20
76594;BME280;65482;50.240;14.302;2023-04-01T04:43:58;97952.91;;;9.83;65.10
76594;BME280;65482;50.240;14.302;2023-04-01T04:46:24;97957.97;;;9.85;64.69
76594;BME280;65482;50.240;14.302;2023-04-01T04:48:52;97957.31;;;9.83;64.55
76594;BME280;65482;50.240;14.302;2023-04-01T04:51:23;97959.78;;;9.84;64.65
76594;BME280;65482;50.240;14.302;2023-04-01T04:53:52;97965.66;;;9.86;64.71
76594;BME280;65482;50.240;14.302;2023-04-01T04:56:20;97964.06;;;9.85;64.44
76594;BME280;65482;50.240;14.302;2023-04-01T04:58:49;97962.19;;;9.79;64.70
76594;BME280;65482;50.240;14.302;2023-04-01T05:01:19;97955.09;;;9.80;64.13
76594;BME280;65482;50.240;14.302;2023-04-01T05:03:46;97965.00;;;9.78;64.42
76594;BME280;65482;50.240;14.302;2023-04-01T05:06:18;97963.78;;;9.73;64.49
76594;BME280;65482;50.240;14.302;2023-04-01T05:08:44;97968.00;;;9.74;64.45
76594;BME280;65482;50.240;14.302;2023-04-01T05:11:18;97974.31;;;9.73;64.35
76594;BME280;65482;50.240;14.302;2023-04-01T05:13:45;97982.56;;;9.70;64.66
76594;BME280;65482;50.240;14.302;2023-04-01T05:16:18;97976.34;;;9.78;64.16
76594;BME280;65482;50.240;14.302;2023-04-01T05:18:47;97977.78;;;9.81;63.95
76594;BME280;65482;50.240;14.302;2023-04-01T05:21:15;97978.97;;;9.78;64.05
76594;BME280;65482;50.240;14.302;2023-04-01T05:23:45;97984.66;;;9.75;64.25
76594;BME280;65482;50.240;14.302;2023-04-01T05:26:13;97984.88;;;9.80;64.14
76594;BME280;65482;50.240;14.302;2023-04-01T05:28:40;97979.41;;;9.82;63.95
76594;BME280;65482;50.240;14.302;2023-04-01T05:31:06;97982.31;;;9.87;64.08
76594;BME280;65482;50.240;14.302;2023-04-01T05:33:33;97978.41;;;9.83;64.06
76594;BME280;65482;50.240;14.302;2023-04-01T05:36:09;97976.78;;;9.82;64.10
76594;BME280;65482;50.240;14.302;2023-04-01T05:38:35;97988.59;;;9.92;63.95
76594;BME280;65482;50.240;14.302;2023-04-01T05:41:02;97990.03;;;9.95;63.84
76594;BME280;65482;50.240;14.302;2023-04-01T05:43:28;97987.00;;;9.98;63.72
76594;BME280;65482;50.240;14.302;2023-04-01T05:45:56;97980.16;;;10.04;63.62
76594;BME280;65482;50.240;14.302;2023-04-01T05:48:22;97989.28;;;10.08;63.62
76594;BME280;65482;50.240;14.302;2023-04-01T05:50:48;97981.41;;;10.14;63.44
76594;BME280;65482;50.240;14.302;2023-04-01T05:53:18;97984.09;;;10.21;63.38
76594;BME280;65482;50.240;14.302;2023-04-01T05:55:44;97991.41;;;10.26;63.29
76594;BME280;65482;50.240;14.302;2023-04-01T05:58:12;97989.03;;;10.31;62.71
76594;BME280;65482;50.240;14.302;2023-04-01T06:00:41;97988.88;;;10.39;62.83
76594;BME280;65482;50.240;14.302;2023-04-01T06:03:07;97996.78;;;10.46;62.51
76594;BME280;65482;50.240;14.302;2023-04-01T06:05:43;97997.66;;;10.53;62.55
76594;BME280;65482;50.240;14.302;2023-04-01T06:08:15;97999.69;;;10.58;62.40
76594;BME280;65482;50.240;14.302;2023-04-01T06:13:38;97998.75;;;10.79;61.81
76594;BME280;65482;50.240;14.302;2023-04-01T06:38:43;98013.44;;;11.48;59.84
76594;BME280;65482;50.240;14.302;2023-04-01T06:47:22;98019.97;;;11.72;59.40
76594;BME280;65482;50.240;14.302;2023-04-01T06:50:24;98022.19;;;11.75;59.17
76594;BME280;65482;50.240;14.302;2023-04-01T06:53:18;98023.81;;;11.83;59.71
76594;BME280;65482;50.240;14.302;2023-04-01T06:55:48;98027.28;;;11.77;59.73
76594;BME280;65482;50.240;14.302;2023-04-01T06:58:21;98027.06;;;11.78;59.53
76594;BME280;65482;50.240;14.302;2023-04-01T07:00:56;98028.69;;;11.79;59.91
76594;BME280;65482;50.240;14.302;2023-04-01T07:03:33;98031.75;;;11.89;60.55
76594;BME280;65482;50.240;14.302;2023-04-01T07:06:25;98025.66;;;12.02;60.40
76594;BME280;65482;50.240;14.302;2023-04-01T07:08:54;98034.16;;;12.11;60.55
76594;BME280;65482;50.240;14.302;2023-04-01T07:11:34;98026.47;;;11.96;61.51
76594;BME280;65482;50.240;14.302;2023-04-01T07:14:04;98022.81;;;11.90;61.42
76594;BME280;65482;50.240;14.302;2023-04-01T07:16:45;98030.31;;;11.93;61.77
76594;BME280;65482;50.240;14.302;2023-04-01T07:19:53;98022.19;;;11.95;61.58
76594;BME280;65482;50.240;14.302;2023-04-01T07:22:29;98027.69;;;11.93;61.73
76594;BME280;65482;50.240;14.302;2023-04-01T07:25:05;98029.50;;;11.80;61.76
76594;BME280;65482;50.240;14.302;2023-04-01T07:27:39;98028.50;;;11.94;61.37
76594;BME280;65482;50.240;14.302;2023-04-01T07:30:18;98027.69;;;11.93;61.36
76594;BME280;65482;50.240;14.302;2023-04-01T07:35:48;98033.75;;;12.07;60.60
76594;BME280;65482;50.240;14.302;2023-04-01T07:44:54;98028.84;;;12.24;59.55
76594;BME280;65482;50.240;14.302;2023-04-01T07:47:39;98036.16;;;12.36;58.89
76594;BME280;65482;50.240;14.302;2023-04-01T08:00:59;98049.34;;;13.64;55.49
76594;BME280;65482;50.240;14.302;2023-04-01T08:06:34;98045.94;;;16.83;47.42
76594;BME280;65482;50.240;14.302;2023-04-01T08:12:07;98051.59;;;19.50;40.68
76594;BME280;65482;50.240;14.302;2023-04-01T08:15:04;98051.03;;;21.90;36.94
76594;BME280;65482;50.240;14.302;2023-04-01T08:17:47;98051.84;;;22.96;34.02
76594;BME280;65482;50.240;14.302;2023-04-01T08:23:17;98058.69;;;25.17;31.26
76594;BME280;65482;50.240;14.302;2023-04-01T08:26:10;98055.63;;;24.09;31.84
76594;BME280;65482;50.240;14.302;2023-04-01T08:28:46;98052.28;;;23.58;32.61
76594;BME280;65482;50.240;14.302;2023-04-01T08:33:58;98054.38;;;24.25;31.16
76594;BME280;65482;50.240;14.302;2023-04-01T08:38:57;98052.50;;;22.68;33.68
76594;BME280;65482;50.240;14.302;2023-04-01T08:44:34;98053.97;;;22.03;34.69
76594;BME280;65482;50.240;14.302;2023-04-01T08:50:31;98038.00;;;20.74;36.53
76594;BME280;65482;50.240;14.302;2023-04-01T09:01:25;98041.38;;;18.87;39.61
76594;BME280;65482;50.240;14.302;2023-04-01T09:12:42;98057.38;;;19.96;39.18
76594;BME280;65482;50.240;14.302;2023-04-01T09:18:27;98044.91;;;19.79;38.60
76594;BME280;65482;50.240;14.302;2023-04-01T09:23:55;98045.63;;;19.70;38.36
76594;BME280;65482;50.240;14.302;2023-04-01T09:35:00;98042.47;;;18.91;38.36
76594;BME280;65482;50.240;14.302;2023-04-01T09:37:53;98047.78;;;18.25;39.66
76594;BME280;65482;50.240;14.302;2023-04-01T09:40:37;98046.84;;;17.97;40.02
76594;BME280;65482;50.240;14.302;2023-04-01T09:46:11;98057.28;;;17.19;41.66
76594;BME280;65482;50.240;14.302;2023-04-01T09:49:17;98052.66;;;16.74;42.73
76594;BME280;65482;50.240;14.302;2023-04-01T09:52:14;98054.34;;;16.16;43.67
76594;BME280;65482;50.240;14.302;2023-04-01T09:55:19;98064.53;;;15.96;44.78
76594;BME280;65482;50.240;14.302;2023-04-01T10:01:34;98060.94;;;15.78;44.99
76594;BME280;65482;50.240;14.302;2023-04-01T10:15:25;98055.97;;;16.29;42.93
76594;BME280;65482;50.240;14.302;2023-04-01T10:24:24;98049.50;;;16.89;41.31
76594;BME280;65482;50.240;14.302;2023-04-01T10:33:56;98049.56;;;17.23;40.47
76594;BME280;65482;50.240;14.302;2023-04-01T10:51:04;98047.13;;;17.50;40.81
76594;BME280;65482;50.240;14.302;2023-04-01T10:56:55;98047.03;;;17.91;41.02
76594;BME280;65482;50.240;14.302;2023-04-01T11:11:21;98051.69;;;17.83;39.43
76594;BME280;65482;50.240;14.302;2023-04-01T11:16:32;98044.00;;;17.70;39.42
76594;BME280;65482;50.240;14.302;2023-04-01T11:22:20;98039.59;;;17.30;41.42
76594;BME280;65482;50.240;14.302;2023-04-01T11:30:21;98041.72;;;16.99;41.87
76594;BME280;65482;50.240;14.302;2023-04-01T11:33:06;98055.41;;;16.79;41.93
76594;BME280;65482;50.240;14.302;2023-04-01T11:38:25;98046.94;;;16.94;41.90
76594;BME280;65482;50.240;14.302;2023-04-01T11:41:02;98050.22;;;17.13;41.12
76594;BME280;65482;50.240;14.302;2023-04-01T11:46:11;98050.47;;;17.57;41.25
76594;BME280;65482;50.240;14.302;2023-04-01T11:48:48;98053.13;;;17.74;40.90
76594;BME280;65482;50.240;14.302;2023-04-01T11:52:02;98053.25;;;17.50;41.02
76594;BME280;65482;50.240;14.302;2023-04-01T11:54:42;98061.50;;;17.03;41.68
76594;BME280;65482;50.240;14.302;2023-04-01T11:57:34;98054.34;;;16.80;41.84
76594;BME280;65482;50.240;14.302;2023-04-01T12:03:27;98054.75;;;16.60;43.18
76594;BME280;65482;50.240;14.302;2023-04-01T12:09:11;98052.78;;;16.67;43.02
76594;BME280;65482;50.240;14.302;2023-04-01T12:14:54;98053.34;;;16.69;43.35
76594;BME280;65482;50.240;14.302;2023-04-01T12:17:43;98055.34;;;16.62;42.54
76594;BME280;65482;50.240;14.302;2023-04-01T12:26:10;98060.06;;;16.84;42.25
76594;BME280;65482;50.240;14.302;2023-04-01T12:29:04;98059.22;;;16.95;42.79
76594;BME280;65482;50.240;14.302;2023-04-01T12:31:42;98062.72;;;16.84;42.83
76594;BME280;65482;50.240;14.302;2023-04-01T12:34:24;98067.63;;;16.63;43.60
76594;BME280;65482;50.240;14.302;2023-04-01T12:40:01;98069.03;;;16.42;44.13
76594;BME280;65482;50.240;14.302;2023-04-01T12:45:32;98073.41;;;16.60;44.44
76594;BME280;65482;50.240;14.302;2023-04-01T12:48:27;98071.06;;;16.76;43.90
76594;BME280;65482;50.240;14.302;2023-04-01T12:57:24;98074.69;;;16.58;43.59
76594;BME280;65482;50.240;14.302;2023-04-01T13:06:05;98071.88;;;15.70;45.66
76594;BME280;65482;50.240;14.302;2023-04-01T13:20:21;98072.16;;;15.92;46.22
76594;BME280;65482;50.240;14.302;2023-04-01T13:36:06;98063.84;;;15.46;44.68
76594;BME280;65482;50.240;14.302;2023-04-01T13:44:16;98070.78;;;15.17;45.06
76594;BME280;65482;50.240;14.302;2023-04-01T13:52:24;98070.34;;;15.50;45.63
76594;BME280;65482;50.240;14.302;2023-04-01T14:00:32;98074.28;;;15.60;47.16
76594;BME280;65482;50.240;14.302;2023-04-01T14:06:27;98075.78;;;15.67;47.72
76594;BME280;65482;50.240;14.302;2023-04-01T14:16:11;98074.59;;;16.05;47.45
76594;BME280;65482;50.240;14.302;2023-04-01T14:21:26;98073.56;;;16.06;49.24
76594;BME280;65482;50.240;14.302;2023-04-01T14:30:04;98079.44;;;16.32;47.49
76594;BME280;65482;50.240;14.302;2023-04-01T14:32:47;98070.41;;;16.21;46.20
76594;BME280;65482;50.240;14.302;2023-04-01T14:35:35;98075.63;;;16.04;46.18
76594;BME280;65482;50.240;14.302;2023-04-01T14:43:42;98077.91;;;15.77;45.96
76594;BME280;65482;50.240;14.302;2023-04-01T14:51:41;98077.69;;;15.37;47.22
76594;BME280;65482;50.240;14.302;2023-04-01T14:54:16;98081.53;;;15.52;46.93
76594;BME280;65482;50.240;14.302;2023-04-01T14:59:28;98088.13;;;16.04;46.19
76594;BME280;65482;50.240;14.302;2023-04-01T15:02:18;98090.44;;;16.24;44.49
76594;BME280;65482;50.240;14.302;2023-04-01T15:05:02;98092.84;;;16.37;43.39
76594;BME280;65482;50.240;14.302;2023-04-01T15:21:50;98105.78;;;15.14;46.45
76594;BME280;65482;50.240;14.302;2023-04-01T15:24:25;98104.78;;;14.97;47.23
76594;BME280;65482;50.240;14.302;2023-04-01T15:32:19;98108.91;;;14.74;48.57
76594;BME280;65482;50.240;14.302;2023-04-01T15:35:37;98105.22;;;14.75;48.25
76594;BME280;65482;50.240;14.302;2023-04-01T15:38:26;98115.25;;;14.73;48.15
76594;BME280;65482;50.240;14.302;2023-04-01T15:41:24;98112.41;;;14.49;47.55
76594;BME280;65482;50.240;14.302;2023-04-01T15:43:55;98114.56;;;14.41;48.06
76594;BME280;65482;50.240;14.302;2023-04-01T15:46:44;98127.50;;;14.30;48.98
76594;BME280;65482;50.240;14.302;2023-04-01T15:52:20;98124.41;;;14.08;49.68
76594;BME280;65482;50.240;14.302;2023-04-01T15:55:07;98129.19;;;14.00;50.47
76594;BME280;65482;50.240;14.302;2023-04-01T16:01:02;98142.81;;;14.03;50.79
76594;BME280;65482;50.240;14.302;2023-04-01T16:03:51;98139.78;;;14.00;51.03
76594;BME280;65482;50.240;14.302;2023-04-01T16:06:24;98143.09;;;13.95;51.17
76594;BME280;65482;50.240;14.302;2023-04-01T16:14:07;98146.63;;;13.82;50.95
76594;BME280;65482;50.240;14.302;2023-04-01T16:17:01;98153.25;;;13.73;50.12
76594;BME280;65482;50.240;14.302;2023-04-01T16:19:41;98152.72;;;13.58;50.41
76594;BME280;65482;50.240;14.302;2023-04-01T16:22:18;98153.06;;;13.68;50.21
76594;BME280;65482;50.240;14.302;2023-04-01T16:27:54;98160.00;;;13.62;50.46
76594;BME280;65482;50.240;14.302;2023-04-01T16:30:36;98157.22;;;13.57;50.72
76594;BME280;65482;50.240;14.302;2023-04-01T16:33:22;98161.50;;;13.51;50.68
76594;BME280;65482;50.240;14.302;2023-04-01T16:39:29;98167.88;;;13.44;50.88
76594;BME280;65482;50.240;14.302;2023-04-01T16:42:16;98167.50;;;13.33;52.17
76594;BME280;65482;50.240;14.302;2023-04-01T16:44:59;98171.38;;;13.24;52.32
76594;BME280;65482;50.240;14.302;2023-04-01T16:47:30;98169.78;;;13.17;52.65
76594;BME280;65482;50.240;14.302;2023-04-01T16:52:59;98181.28;;;12.97;53.24
76594;BME280;65482;50.240;14.302;2023-04-01T16:55:43;98186.00;;;12.82;53.53
76594;BME280;65482;50.240;14.302;2023-04-01T16:58:20;98186.41;;;12.72;53.71
76594;BME280;65482;50.240;14.302;2023-04-01T17:00:50;98191.50;;;12.67;53.79
76594;BME280;65482;50.240;14.302;2023-04-01T17:03:43;98199.25;;;12.48;54.46
76594;BME280;65482;50.240;14.302;2023-04-01T17:06:22;98208.41;;;12.39;54.67
76594;BME280;65482;50.240;14.302;2023-04-01T17:14:29;98214.94;;;12.10;56.10
76594;BME280;65482;50.240;14.302;2023-04-01T17:17:13;98220.19;;;12.03;56.33
76594;BME280;65482;50.240;14.302;2023-04-01T17:28:32;98229.25;;;11.74;57.49
76594;BME280;65482;50.240;14.302;2023-04-01T17:42:05;98240.75;;;11.53;58.92
76594;BME280;65482;50.240;14.302;2023-04-01T17:44:49;98241.19;;;11.50;59.09
76594;BME280;65482;50.240;14.302;2023-04-01T17:47:31;98252.13;;;11.47;59.34
76594;BME280;65482;50.240;14.302;2023-04-01T17:53:17;98254.13;;;11.45;59.66
76594;BME280;65482;50.240;14.302;2023-04-01T17:56:02;98257.59;;;11.45;59.82
76594;BME280;65482;50.240;14.302;2023-04-01T17:58:58;98259.22;;;11.46;60.15
76594;BME280;65482;50.240;14.302;2023-04-01T18:01:34;98258.19;;;11.47;59.73
76594;BME280;65482;50.240;14.302;2023-04-01T18:04:22;98261.44;;;11.43;60.26
76594;BME280;65482;50.240;14.302;2023-04-01T18:07:30;98267.50;;;11.37;60.48
76594;BME280;65482;50.240;14.302;2023-04-01T18:10:31;98269.13;;;11.38;60.59
76594;BME280;65482;50.240;14.302;2023-04-01T18:15:42;98274.41;;;11.38;60.81
76594;BME280;65482;50.240;14.302;2023-04-01T18:23:40;98287.81;;;11.36;61.47
76594;BME280;65482;50.240;14.302;2023-04-01T18:26:31;98293.25;;;11.28;61.63
76594;BME280;65482;50.240;14.302;2023-04-01T18:31:46;98296.94;;;11.33;61.49
76594;BME280;65482;50.240;14.302;2023-04-01T18:34:20;98304.22;;;11.31;61.21
76594;BME280;65482;50.240;14.302;2023-04-01T18:36:59;98303.78;;;11.28;61.20
76594;BME280;65482;50.240;14.302;2023-04-01T18:39:36;98302.81;;;11.29;60.65
76594;BME280;65482;50.240;14.302;2023-04-01T18:42:22;98305.81;;;11.26;60.96
76594;BME280;65482;50.240;14.302;2023-04-01T18:48:01;98313.34;;;11.29;60.87
76594;BME280;65482;50.240;14.302;2023-04-01T18:50:37;98318.22;;;11.25;60.95
76594;BME280;65482;50.240;14.302;2023-04-01T18:55:54;98319.84;;;11.26;60.71
76594;BME280;65482;50.240;14.302;2023-04-01T18:58:59;98327.50;;;11.14;61.01
76594;BME280;65482;50.240;14.302;2023-04-01T19:07:19;98333.13;;;11.11;61.49
76594;BME280;65482;50.240;14.302;2023-04-01T19:09:48;98338.59;;;11.10;61.49
76594;BME280;65482;50.240;14.302;2023-04-01T19:12:35;98338.75;;;11.02;61.91
76594;BME280;65482;50.240;14.302;2023-04-01T19:20:41;98344.63;;;10.97;61.87
76594;BME280;65482;50.240;14.302;2023-04-01T19:26:30;98355.97;;;10.98;61.90
76594;BME280;65482;50.240;14.302;2023-04-01T19:29:33;98353.53;;;10.96;62.09
76594;BME280;65482;50.240;14.302;2023-04-01T19:35:26;98360.81;;;10.94;62.24
76594;BME280;65482;50.240;14.302;2023-04-01T19:41:26;98362.41;;;10.88;62.76
76594;BME280;65482;50.240;14.302;2023-04-01T19:52:38;98361.16;;;10.84;63.12
76594;BME280;65482;50.240;14.302;2023-04-01T19:55:33;98361.34;;;10.83;63.24
76594;BME280;65482;50.240;14.302;2023-04-01T19:58:25;98368.63;;;10.81;63.49
76594;BME280;65482;50.240;14.302;2023-04-01T20:00:57;98368.63;;;10.81;63.58
76594;BME280;65482;50.240;14.302;2023-04-01T20:03:54;98378.13;;;10.75;63.73
76594;BME280;65482;50.240;14.302;2023-04-01T20:06:32;98377.94;;;10.77;64.04
76594;BME280;65482;50.240;14.302;2023-04-01T20:12:14;98379.06;;;10.67;64.48
76594;BME280;65482;50.240;14.302;2023-04-01T20:14:51;98384.06;;;10.62;64.69
76594;BME280;65482;50.240;14.302;2023-04-01T20:20:19;98388.31;;;10.57;64.86
76594;BME280;65482;50.240;14.302;2023-04-01T20:25:15;98388.31;;;10.57;65.40
76594;BME280;65482;50.240;14.302;2023-04-01T20:28:05;98388.59;;;10.47;65.39
76594;BME280;65482;50.240;14.302;2023-04-01T20:30:55;98398.06;;;10.41;66.06
76594;BME280;65482;50.240;14.302;2023-04-01T20:36:16;98393.38;;;10.37;66.36
76594;BME280;65482;50.240;14.302;2023-04-01T20:39:10;98407.44;;;10.29;66.83
76594;BME280;65482;50.240;14.302;2023-04-01T20:50:19;98406.66;;;10.13;67.79
76594;BME280;65482;50.240;14.302;2023-04-01T20:53:11;98399.94;;;10.11;67.82
76594;BME280;65482;50.240;14.302;2023-04-01T20:56:02;98409.00;;;10.08;68.00